createdAt,value
2019-04-21T00:02:26.471Z,2.57
2019-04-21T00:05:14.148Z,2.55
2019-04-21T00:07:49.505Z,2.56
2019-04-21T00:10:18.783Z,2.50
2019-04-21T00:12:45.895Z,2.40
2019-04-21T00:15:09.706Z,2.29
2019-04-21T00:17:36.950Z,2.25
2019-04-21T00:20:22.453Z,2.21
2019-04-21T00:22:53.371Z,2.24
2019-04-21T00:25:31.676Z,2.31
2019-04-21T00:28:12.210Z,2.22
2019-04-21T00:30:39.823Z,2.12
2019-04-21T00:33:00.215Z,2.02
2019-04-21T00:35:27.453Z,1.97
2019-04-21T00:38:18.378Z,1.99
2019-04-21T00:40:56.652Z,2.18
2019-04-21T00:43:19.888Z,2.03
2019-04-21T00:45:44.849Z,1.84
2019-04-21T00:48:32.959Z,1.76
2019-04-21T00:51:16.926Z,1.65
2019-04-21T00:53:53.482Z,1.57
2019-04-21T00:56:21.300Z,1.49
2019-04-21T00:58:53.600Z,1.48
2019-04-21T01:01:19.824Z,1.66
2019-04-21T01:03:59.086Z,1.71
2019-04-21T01:06:34.033Z,1.46
2019-04-21T01:09:01.277Z,1.38
2019-04-21T01:11:31.847Z,1.27
2019-04-21T01:14:05.126Z,1.43
2019-04-21T01:16:39.586Z,1.45
2019-04-21T01:19:13.902Z,1.30
2019-04-21T01:21:22.023Z,1.21
2019-04-21T01:23:55.692Z,1.13
2019-04-21T01:26:32.528Z,1.24
2019-04-21T01:29:12.066Z,1.32
2019-04-21T01:31:42.626Z,1.15
2019-04-21T01:34:24.920Z,1.01
2019-04-21T01:36:58.693Z,0.99
2019-04-21T01:39:34.506Z,1.08
2019-04-21T01:42:03.208Z,1.07
2019-04-21T01:47:04.944Z,1.21
2019-04-21T01:49:29.558Z,1.09
2019-04-21T01:52:24.691Z,0.93
2019-04-21T01:55:06.425Z,0.81
2019-04-21T01:57:56.653Z,0.69
2019-04-21T02:00:39.399Z,0.60
2019-04-21T02:03:31.494Z,0.54
2019-04-21T02:05:51.392Z,0.50
2019-04-21T02:08:15.533Z,0.49
2019-04-21T02:10:54.874Z,0.69
2019-04-21T02:13:20.226Z,0.54
2019-04-21T02:16:01.072Z,0.46
2019-04-21T02:18:27.580Z,0.41
2019-04-21T02:20:52.822Z,0.38
2019-04-21T02:23:38.513Z,0.33
2019-04-21T02:26:09.724Z,0.32
2019-04-21T02:28:51.726Z,0.33
2019-04-21T02:31:22.638Z,0.26
2019-04-21T02:41:37.862Z,0.14
2019-04-21T02:51:42.577Z,-0.08
2019-04-21T02:59:22.836Z,-0.16
2019-04-21T03:05:01.710Z,-0.20
2019-04-21T03:07:20.002Z,-0.12
2019-04-21T03:09:51.099Z,-0.10
2019-04-21T03:12:22.178Z,-0.20
2019-04-21T03:17:44.137Z,0.09
2019-04-21T03:20:11.528Z,0.30
2019-04-21T03:25:25.175Z,0.26
2019-04-21T03:27:50.141Z,0.19
2019-04-21T03:30:29.856Z,0.09
2019-04-21T03:36:02.246Z,0.22
2019-04-21T03:37:55.423Z,0.19
2019-04-21T03:40:24.033Z,0.28
2019-04-21T03:42:59.447Z,0.20
2019-04-21T03:48:01.405Z,0.32
2019-04-21T03:50:35.423Z,0.56
2019-04-21T03:53:09.568Z,0.56
2019-04-21T03:58:25.908Z,0.67
2019-04-21T04:06:25.696Z,0.72
2019-04-21T04:11:58.332Z,0.87
2019-04-21T04:14:45.951Z,0.96
2019-04-21T04:19:45.424Z,1.15
2019-04-21T04:24:39.158Z,1.43
2019-04-21T04:27:22.485Z,1.52
2019-04-21T04:29:39.680Z,1.65
2019-04-21T04:32:16.901Z,1.75
2019-04-21T04:34:59.537Z,1.92
2019-04-21T04:37:38.340Z,2.04
2019-04-21T04:40:13.532Z,2.22
2019-04-21T04:45:38.498Z,2.61
2019-04-21T04:47:59.048Z,2.88
2019-04-21T04:53:28.735Z,3.65
2019-04-21T04:58:19.231Z,4.37
2019-04-21T05:01:10.177Z,4.48
2019-04-21T05:03:37.218Z,4.73
2019-04-21T05:09:09.433Z,5.13
2019-04-21T05:14:06.252Z,5.69
2019-04-21T05:19:18.115Z,6.42
2019-04-21T05:24:01.365Z,7.35
2019-04-21T05:26:33.145Z,7.74
2019-04-21T05:29:02.024Z,8.22
2019-04-21T05:34:42.645Z,9.09
2019-04-21T05:37:43.268Z,9.82
2019-04-21T05:40:24.776Z,10.21
2019-04-21T05:42:55.777Z,11.45
2019-04-21T05:45:34.838Z,12.20
2019-04-21T05:48:35.085Z,12.58
2019-04-21T05:51:03.695Z,11.58
2019-04-21T05:53:35.689Z,10.68
2019-04-21T05:56:17.270Z,10.08
2019-04-21T05:58:43.986Z,9.60
2019-04-21T06:01:24.089Z,9.51
2019-04-21T06:06:31.008Z,11.22
2019-04-21T06:08:53.978Z,12.03
2019-04-21T06:11:45.907Z,11.48
2019-04-21T06:14:11.862Z,11.01
2019-04-21T06:16:43.086Z,12.49
2019-04-21T06:19:14.227Z,14.62
2019-04-21T06:21:40.461Z,16.20
2019-04-21T06:24:18.791Z,17.79
2019-04-21T06:29:14.882Z,17.22
2019-04-21T06:34:27.829Z,16.58
2019-04-21T06:37:32.701Z,17.01
2019-04-21T06:39:52.419Z,17.77
2019-04-21T06:42:16.417Z,17.09
2019-04-21T06:47:29.963Z,17.34
2019-04-21T06:49:53.717Z,17.15
2019-04-21T07:00:10.406Z,18.42
2019-04-21T07:05:20.311Z,18.39
2019-04-21T07:07:57.590Z,18.43
2019-04-21T07:10:22.497Z,18.84
2019-04-21T07:12:55.862Z,19.49
2019-04-21T07:15:28.308Z,19.01
2019-04-21T07:18:04.597Z,18.82
2019-04-21T07:20:36.258Z,20.25
2019-04-21T07:23:11.232Z,19.39
2019-04-21T07:25:49.311Z,20.42
2019-04-21T07:28:21.502Z,20.69
2019-04-21T07:30:51.558Z,20.39
2019-04-21T07:33:46.222Z,20.83
2019-04-21T07:35:51.705Z,21.04
2019-04-21T07:38:24.405Z,21.09
2019-04-21T07:40:45.793Z,20.11
2019-04-21T07:43:22.179Z,20.44
2019-04-21T07:45:52.478Z,20.69
2019-04-21T07:48:37.613Z,20.76
2019-04-21T07:51:24.898Z,18.96
2019-04-21T07:54:13.364Z,18.62
2019-04-21T07:56:29.025Z,18.81
2019-04-21T07:59:10.050Z,19.41
2019-04-21T08:01:53.511Z,18.50
2019-04-21T08:04:37.871Z,18.20
2019-04-21T08:06:52.415Z,18.29
2019-04-21T08:09:25.557Z,18.53
2019-04-21T08:11:54.752Z,18.37
2019-04-21T08:14:31.782Z,18.49
2019-04-21T08:17:06.011Z,19.14
2019-04-21T08:19:32.191Z,19.33
2019-04-21T08:22:11.066Z,20.41
2019-04-21T08:24:42.128Z,19.93
2019-04-21T08:27:19.055Z,20.34
2019-04-21T08:29:46.280Z,20.51
2019-04-21T08:32:31.115Z,19.30
2019-04-21T08:35:08.483Z,20.07
2019-04-21T08:37:29.537Z,20.16
2019-04-21T08:40:09.860Z,20.72
2019-04-21T08:42:30.511Z,22.01
2019-04-21T08:45:07.383Z,22.17
2019-04-21T08:47:40.069Z,22.89
2019-04-21T08:50:08.017Z,23.82
2019-04-21T08:52:51.003Z,24.35
2019-04-21T08:55:31.787Z,24.37
2019-04-21T08:58:35.449Z,24.65
2019-04-21T09:01:23.799Z,23.18
2019-04-21T09:09:08.163Z,23.26
2019-04-21T09:11:37.554Z,23.52
2019-04-21T09:14:07.816Z,24.56
2019-04-21T09:16:35.195Z,25.34
2019-04-21T09:19:04.444Z,24.79
2019-04-21T09:21:45.003Z,24.58
2019-04-21T09:24:16.674Z,24.20
2019-04-21T09:26:46.574Z,24.22
2019-04-21T09:29:15.961Z,24.20
2019-04-21T09:31:41.815Z,25.08
2019-04-21T09:34:16.469Z,25.56
2019-04-21T09:36:47.844Z,24.01
2019-04-21T09:39:18.781Z,24.38
2019-04-21T09:41:49.877Z,25.35
2019-04-21T09:44:25.505Z,25.11
2019-04-21T09:46:55.926Z,22.95
2019-04-21T09:49:27.161Z,22.18
2019-04-21T09:51:55.300Z,22.55
2019-04-21T09:54:31.243Z,22.76
2019-04-21T09:57:10.633Z,24.28
2019-04-21T09:59:41.776Z,25.09
2019-04-21T10:02:17.470Z,25.11
2019-04-21T10:04:42.492Z,25.13
2019-04-21T10:07:25.799Z,24.12
2019-04-21T10:09:47.990Z,24.77
2019-04-21T10:12:19.934Z,23.71
2019-04-21T10:14:51.766Z,23.88
2019-04-21T10:17:39.620Z,23.67
2019-04-21T10:20:11.829Z,23.62
2019-04-21T10:22:43.080Z,23.65
2019-04-21T10:25:16.775Z,22.88
2019-04-21T10:27:49.393Z,24.04
2019-04-21T10:30:20.433Z,25.45
2019-04-21T10:32:50.815Z,25.41
2019-04-21T10:35:23.076Z,25.25
2019-04-21T10:38:04.408Z,24.14
2019-04-21T10:40:25.543Z,23.33
2019-04-21T10:43:03.938Z,22.41
2019-04-21T10:45:34.927Z,22.75
2019-04-21T10:48:05.274Z,23.33
2019-04-21T10:50:37.038Z,22.48
2019-04-21T10:53:20.826Z,23.28
2019-04-21T10:56:06.406Z,24.19
2019-04-21T10:58:26.587Z,24.65
2019-04-21T11:01:06.572Z,22.67
2019-04-21T11:03:48.777Z,23.34
2019-04-21T11:06:20.990Z,23.52
2019-04-21T11:08:55.396Z,25.37
2019-04-21T11:11:24.042Z,25.46
2019-04-21T11:13:54.853Z,25.22
2019-04-21T11:16:26.933Z,25.39
2019-04-21T11:18:58.040Z,24.78
2019-04-21T11:21:29.221Z,24.89
2019-04-21T11:23:59.709Z,23.70
2019-04-21T11:26:33.821Z,24.73
2019-04-21T11:29:05.430Z,25.17
2019-04-21T11:31:38.952Z,24.38
2019-04-21T11:34:09.422Z,25.28
2019-04-21T11:36:43.919Z,24.63
2019-04-21T11:39:33.535Z,23.84
2019-04-21T11:41:57.710Z,22.60
2019-04-21T11:44:31.133Z,23.16
2019-04-21T11:47:02.652Z,24.26
2019-04-21T11:49:36.955Z,24.45
2019-04-21T11:52:09.073Z,24.54
2019-04-21T11:54:40.679Z,25.73
2019-04-21T11:57:20.523Z,24.88
2019-04-21T11:59:45.890Z,24.00
2019-04-21T12:02:23.568Z,23.62
2019-04-21T12:04:53.891Z,23.28
2019-04-21T12:07:27.151Z,23.84
2019-04-21T12:09:57.893Z,22.67
2019-04-21T12:12:29.510Z,22.38
2019-04-21T12:14:59.989Z,22.66
2019-04-21T12:17:30.282Z,22.54
2019-04-21T12:20:04.212Z,22.91
2019-04-21T12:22:39.080Z,23.09
2019-04-21T12:25:13.225Z,23.77
2019-04-21T12:27:45.692Z,21.86
2019-04-21T12:30:17.733Z,21.95
2019-04-21T12:33:13.993Z,21.61
2019-04-21T12:35:45.931Z,21.72
2019-04-21T12:38:27.995Z,21.85
2019-04-21T12:41:13.329Z,21.99
2019-04-21T12:43:44.538Z,21.74
2019-04-21T12:46:18.200Z,22.37
2019-04-21T12:48:49.698Z,22.05
2019-04-21T12:51:20.102Z,22.17
2019-04-21T12:53:51.966Z,19.95
2019-04-21T12:56:23.400Z,19.77
2019-04-21T12:58:55.264Z,19.84
2019-04-21T13:01:27.393Z,20.58
2019-04-21T13:03:57.899Z,20.24
2019-04-21T13:06:29.698Z,21.39
2019-04-21T13:09:06.917Z,22.07
2019-04-21T13:11:37.214Z,20.69
2019-04-21T13:14:08.238Z,20.44
2019-04-21T13:16:43.561Z,20.36
2019-04-21T13:19:13.883Z,20.38
2019-04-21T13:21:44.212Z,20.20
2019-04-21T13:24:16.062Z,19.69
2019-04-21T13:26:52.358Z,20.20
2019-04-21T13:29:20.510Z,20.43
2019-04-21T13:31:52.144Z,19.54
2019-04-21T13:34:24.115Z,18.44
2019-04-21T13:36:57.422Z,16.94
2019-04-21T13:40:21.100Z,17.60
2019-04-21T13:42:40.008Z,18.15
2019-04-21T13:45:08.267Z,18.52
2019-04-21T13:47:46.233Z,19.57
2019-04-21T13:50:17.407Z,20.54
2019-04-21T13:52:48.948Z,20.86
2019-04-21T13:55:19.473Z,21.03
2019-04-21T13:57:50.479Z,21.89
2019-04-21T14:00:23.998Z,21.96
2019-04-21T14:02:54.702Z,20.45
2019-04-21T14:05:26.537Z,20.22
2019-04-21T14:07:58.012Z,20.09
2019-04-21T14:10:31.344Z,19.99
2019-04-21T14:13:02.598Z,20.06
2019-04-21T14:15:33.567Z,19.92
2019-04-21T14:18:04.667Z,21.12
2019-04-21T14:20:37.432Z,20.72
2019-04-21T14:23:17.224Z,19.72
2019-04-21T14:25:43.749Z,19.76
2019-04-21T14:28:15.633Z,19.49
2019-04-21T14:30:46.167Z,19.90
2019-04-21T14:33:18.205Z,19.45
2019-04-21T14:35:48.630Z,18.86
2019-04-21T14:38:18.947Z,18.41
2019-04-21T14:40:50.323Z,19.19
2019-04-21T14:43:23.751Z,18.91
2019-04-21T14:45:59.132Z,19.46
2019-04-21T14:48:50.892Z,20.00
2019-04-21T14:51:45.218Z,20.77
2019-04-21T14:54:34.763Z,19.43
2019-04-21T14:57:09.339Z,19.14
2019-04-21T14:59:39.678Z,18.60
2019-04-21T15:02:13.903Z,18.63
2019-04-21T15:04:45.902Z,16.81
2019-04-21T15:07:17.470Z,17.02
2019-04-21T15:10:01.092Z,17.49
2019-04-21T15:12:20.341Z,15.34
2019-04-21T15:14:56.012Z,14.47
2019-04-21T15:17:29.140Z,13.71
2019-04-21T15:20:04.455Z,13.60
2019-04-21T15:22:30.845Z,13.58
2019-04-21T15:25:02.834Z,13.48
2019-04-21T15:27:33.334Z,13.13
2019-04-21T15:30:04.830Z,13.13
2019-04-21T15:32:37.350Z,12.77
2019-04-21T15:35:11.075Z,12.66
2019-04-21T15:37:44.065Z,12.60
2019-04-21T15:40:28.213Z,12.78
2019-04-21T15:42:48.380Z,12.62
2019-04-21T15:45:19.004Z,13.05
2019-04-21T15:47:49.977Z,13.79
2019-04-21T15:50:21.866Z,13.92
2019-04-21T15:52:57.978Z,13.68
2019-04-21T15:55:46.687Z,13.62
2019-04-21T15:58:24.992Z,13.73
2019-04-21T16:01:06.957Z,13.34
2019-04-21T16:03:38.578Z,13.13
2019-04-21T16:06:09.703Z,13.10
2019-04-21T16:08:46.595Z,12.40
2019-04-21T16:11:13.980Z,12.01
2019-04-21T16:13:45.882Z,11.99
2019-04-21T16:16:20.182Z,11.84
2019-04-21T16:18:52.087Z,11.56
2019-04-21T16:21:24.088Z,11.48
2019-04-21T16:23:54.486Z,11.29
2019-04-21T16:26:24.826Z,11.28
2019-04-21T16:28:55.339Z,10.91
2019-04-21T16:31:27.897Z,11.02
2019-04-21T16:33:58.820Z,10.83
2019-04-21T16:36:29.826Z,10.53
2019-04-21T16:39:00.156Z,10.55
2019-04-21T16:41:33.959Z,10.46
2019-04-21T16:44:05.132Z,10.55
2019-04-21T16:46:36.033Z,10.34
2019-04-21T16:49:07.550Z,10.47
2019-04-21T16:51:49.831Z,10.47
2019-04-21T16:54:29.252Z,10.40
2019-04-21T16:57:10.050Z,10.32
2019-04-21T16:59:44.458Z,10.20
2019-04-21T17:02:16.451Z,10.10
2019-04-21T17:04:48.499Z,10.18
2019-04-21T17:07:20.012Z,10.26
2019-04-21T17:09:52.879Z,10.14
2019-04-21T17:12:24.544Z,10.14
2019-04-21T17:15:10.737Z,10.12
2019-04-21T17:17:50.102Z,10.09
2019-04-21T17:20:27.887Z,9.88
2019-04-21T17:22:45.492Z,9.81
2019-04-21T17:25:18.262Z,9.74
2019-04-21T17:27:49.284Z,9.69
2019-04-21T17:30:20.534Z,9.65
2019-04-21T17:32:51.946Z,9.60
2019-04-21T17:35:24.762Z,9.45
2019-04-21T17:37:56.258Z,9.32
2019-04-21T17:40:27.965Z,9.23
2019-04-21T17:43:03.220Z,9.07
2019-04-21T17:45:31.072Z,8.98
2019-04-21T17:48:08.171Z,8.96
2019-04-21T17:51:01.352Z,8.87
2019-04-21T17:53:53.779Z,8.74
2019-04-21T17:56:48.127Z,8.78
2019-04-21T17:59:17.604Z,8.70
2019-04-21T18:01:49.678Z,8.57
2019-04-21T18:04:22.846Z,8.42
2019-04-21T18:07:08.190Z,8.33
2019-04-21T18:09:49.880Z,8.30
2019-04-21T18:12:16.682Z,8.21
2019-04-21T18:14:32.731Z,8.17
2019-04-21T18:17:06.576Z,8.04
2019-04-21T18:19:41.820Z,7.94
2019-04-21T18:22:17.465Z,7.83
2019-04-21T18:25:02.978Z,7.73
2019-04-21T18:27:21.975Z,7.69
2019-04-21T18:29:55.368Z,7.58
2019-04-21T18:32:30.830Z,7.49
2019-04-21T18:35:19.129Z,7.54
2019-04-21T18:38:09.654Z,7.41
2019-04-21T18:40:35.226Z,7.41
2019-04-21T18:43:42.121Z,7.26
2019-04-21T18:46:27.000Z,7.19
2019-04-21T18:49:00.760Z,7.18
2019-04-21T18:51:57.186Z,7.13
2019-04-21T18:54:35.846Z,7.02
2019-04-21T18:57:05.404Z,6.90
2019-04-21T18:59:33.660Z,6.82
2019-04-21T19:02:05.895Z,6.83
2019-04-21T19:04:33.869Z,6.85
2019-04-21T19:07:22.751Z,6.80
2019-04-21T19:10:20.492Z,6.75
2019-04-21T19:12:47.744Z,6.73
2019-04-21T19:15:00.608Z,6.63
2019-04-21T19:22:38.816Z,6.66
2019-04-21T19:25:15.415Z,6.63
2019-04-21T19:27:53.203Z,6.43
2019-04-21T19:30:29.825Z,6.57
2019-04-21T19:33:01.090Z,6.36
2019-04-21T19:35:13.054Z,6.39
2019-04-21T19:37:52.019Z,6.27
2019-04-21T19:40:31.025Z,6.27
2019-04-21T19:42:57.853Z,6.27
2019-04-21T19:45:40.926Z,6.24
2019-04-21T19:48:16.510Z,6.09
2019-04-21T19:50:47.302Z,6.12
2019-04-21T19:53:06.231Z,6.17
2019-04-21T19:55:32.072Z,6.10
2019-04-21T19:58:03.150Z,6.07
2019-04-21T20:00:34.734Z,6.08
2019-04-21T20:03:06.246Z,6.09
2019-04-21T20:05:44.480Z,6.16
2019-04-21T20:08:23.599Z,6.02
2019-04-21T20:10:59.622Z,5.97
2019-04-21T20:13:49.127Z,6.03
2019-04-21T20:16:06.581Z,5.94
2019-04-21T20:18:32.567Z,5.96
2019-04-21T20:20:58.335Z,5.95
2019-04-21T20:23:41.153Z,5.98
2019-04-21T20:26:11.854Z,6.05
2019-04-21T20:28:54.757Z,6.08
2019-04-21T20:31:29.368Z,6.08
2019-04-21T20:34:05.082Z,6.10
2019-04-21T20:36:42.862Z,6.14
2019-04-21T20:38:57.930Z,6.08
2019-04-21T20:41:35.327Z,6.01
2019-04-21T20:44:11.852Z,6.10
2019-04-21T20:46:45.117Z,5.95
2019-04-21T20:49:15.604Z,6.11
2019-04-21T20:52:08.121Z,6.10
2019-04-21T20:54:31.706Z,6.11
2019-04-21T20:57:07.789Z,6.16
2019-04-21T20:59:32.754Z,6.12
2019-04-21T21:02:10.138Z,6.12
2019-04-21T21:04:34.945Z,6.32
2019-04-21T21:07:30.605Z,6.39
2019-04-21T21:09:52.282Z,6.44
2019-04-21T21:12:34.608Z,6.45
2019-04-21T21:14:50.223Z,6.47
2019-04-21T21:17:39.251Z,6.44
2019-04-21T21:20:09.007Z,6.50
2019-04-21T21:22:27.910Z,6.62
2019-04-21T21:25:03.845Z,6.58
2019-04-21T21:27:34.164Z,6.58
2019-04-21T21:30:08.371Z,6.65
2019-04-21T21:32:44.230Z,6.73
2019-04-21T21:35:13.202Z,6.71
2019-04-21T21:37:49.555Z,6.75
2019-04-21T21:40:26.039Z,6.65
2019-04-21T21:42:40.686Z,6.70
2019-04-21T21:45:16.009Z,6.82
2019-04-21T21:48:01.028Z,6.71
2019-04-21T21:50:23.589Z,6.83
2019-04-21T21:52:59.838Z,6.86
2019-04-21T21:55:23.642Z,6.85
2019-04-21T21:58:14.268Z,6.82
2019-04-21T22:00:55.409Z,6.79
2019-04-21T22:03:29.412Z,6.73
2019-04-21T22:06:03.566Z,6.84
2019-04-21T22:08:30.431Z,6.90
2019-04-21T22:11:01.452Z,6.90
2019-04-21T22:13:42.838Z,6.91
2019-04-21T22:16:11.824Z,6.83
2019-04-21T22:18:56.286Z,6.92
2019-04-21T22:21:20.363Z,6.98
2019-04-21T22:23:49.862Z,7.01
2019-04-21T22:26:13.461Z,7.06
2019-04-21T22:28:45.598Z,6.91
2019-04-21T22:31:24.581Z,6.99
2019-04-21T22:33:54.875Z,7.01
2019-04-21T22:36:35.512Z,6.97
2019-04-21T22:39:13.384Z,7.01
2019-04-21T22:41:38.279Z,6.99
2019-04-21T22:44:04.823Z,7.02
2019-04-21T22:46:36.123Z,6.90
2019-04-21T22:49:10.352Z,6.94
2019-04-21T22:51:46.493Z,6.99
2019-04-21T22:54:21.565Z,7.00
2019-04-21T22:56:56.275Z,7.01
2019-04-21T22:59:21.033Z,7.08
2019-04-21T23:01:52.275Z,7.14
2019-04-21T23:04:25.409Z,7.14
2019-04-21T23:06:56.654Z,7.14
2019-04-21T23:09:26.731Z,7.27
2019-04-21T23:11:59.322Z,7.21
2019-04-21T23:14:33.493Z,7.29
2019-04-21T23:17:25.541Z,7.21
2019-04-21T23:19:46.020Z,7.18
2019-04-21T23:22:31.293Z,7.21
2019-04-21T23:24:57.384Z,7.20
2019-04-21T23:27:23.798Z,7.20
2019-04-21T23:30:09.817Z,7.24
2019-04-21T23:32:28.797Z,7.31
2019-04-21T23:34:47.778Z,7.31
2019-04-21T23:37:22.181Z,7.38
2019-04-21T23:39:52.176Z,7.29
2019-04-21T23:42:30.723Z,7.29
2019-04-21T23:44:58.392Z,7.41
2019-04-21T23:47:41.825Z,7.37
2019-04-21T23:50:15.832Z,7.43
2019-04-21T23:52:32.522Z,7.42
2019-04-21T23:55:05.229Z,7.41
2019-04-21T23:57:40.808Z,7.50
